sensor_id;sensor_type;location;lat;lon;timestamp;P1;durP1;ratioP1;P2;durP2;ratioP2
73456;SDS011;61691;53.072;6.582;2023-03-16T00:01:07;16.02;;;3.20;;
73456;SDS011;61691;53.072;6.582;2023-03-16T00:03:34;14.82;;;2.88;;
73456;SDS011;61691;53.072;6.582;2023-03-16T00:06:02;13.35;;;2.60;;
73456;SDS011;61691;53.072;6.582;2023-03-16T00:08:29;15.88;;;3.10;;
73456;SDS011;61691;53.072;6.582;2023-03-16T00:10:56;14.80;;;2.67;;
73456;SDS011;61691;53.072;6.582;2023-03-16T00:13:23;12.20;;;2.63;;
73456;SDS011;61691;53.072;6.582;2023-03-16T00:15:51;12.50;;;2.47;;
73456;SDS011;61691;53.072;6.582;2023-03-16T00:18:19;13.70;;;2.95;;
73456;SDS011;61691;53.072;6.582;2023-03-16T00:20:51;14.68;;;3.00;;
73456;SDS011;61691;53.072;6.582;2023-03-16T00:23:18;13.88;;;2.97;;
73456;SDS011;61691;53.072;6.582;2023-03-16T00:25:53;11.65;;;2.95;;
73456;SDS011;61691;53.072;6.582;2023-03-16T00:28:28;14.07;;;2.95;;
73456;SDS011;61691;53.072;6.582;2023-03-16T00:31:03;13.18;;;2.92;;
73456;SDS011;61691;53.072;6.582;2023-03-16T00:33:31;13.57;;;3.00;;
73456;SDS011;61691;53.072;6.582;2023-03-16T00:36:01;13.32;;;2.58;;
73456;SDS011;61691;53.072;6.582;2023-03-16T00:38:34;11.48;;;2.80;;
73456;SDS011;61691;53.072;6.582;2023-03-16T00:41:02;13.00;;;2.70;;
73456;SDS011;61691;53.072;6.582;2023-03-16T00:43:30;10.95;;;2.60;;
73456;SDS011;61691;53.072;6.582;2023-03-16T00:46:06;16.92;;;3.00;;
73456;SDS011;61691;53.072;6.582;2023-03-16T00:48:35;13.50;;;2.70;;
73456;SDS011;61691;53.072;6.582;2023-03-16T00:51:02;13.20;;;2.83;;
73456;SDS011;61691;53.072;6.582;2023-03-16T00:53:34;18.75;;;2.95;;
73456;SDS011;61691;53.072;6.582;2023-03-16T00:56:02;13.98;;;2.72;;
73456;SDS011;61691;53.072;6.582;2023-03-16T00:58:33;14.23;;;3.08;;
73456;SDS011;61691;53.072;6.582;2023-03-16T01:01:05;15.00;;;3.83;;
73456;SDS011;61691;53.072;6.582;2023-03-16T01:03:34;11.50;;;2.80;;
73456;SDS011;61691;53.072;6.582;2023-03-16T01:06:02;13.20;;;3.10;;
73456;SDS011;61691;53.072;6.582;2023-03-16T01:08:36;16.75;;;3.17;;
73456;SDS011;61691;53.072;6.582;2023-03-16T01:11:13;17.75;;;3.42;;
73456;SDS011;61691;53.072;6.582;2023-03-16T01:13:41;12.80;;;2.90;;
73456;SDS011;61691;53.072;6.582;2023-03-16T01:16:08;13.43;;;2.97;;
73456;SDS011;61691;53.072;6.582;2023-03-16T01:18:36;16.00;;;2.92;;
73456;SDS011;61691;53.072;6.582;2023-03-16T01:21:04;13.00;;;3.13;;
73456;SDS011;61691;53.072;6.582;2023-03-16T01:23:33;16.35;;;3.40;;
73456;SDS011;61691;53.072;6.582;2023-03-16T01:26:00;17.17;;;3.83;;
73456;SDS011;61691;53.072;6.582;2023-03-16T01:28:28;16.98;;;3.40;;
73456;SDS011;61691;53.072;6.582;2023-03-16T01:31:04;16.20;;;3.70;;
73456;SDS011;61691;53.072;6.582;2023-03-16T01:33:33;15.32;;;3.22;;
73456;SDS011;61691;53.072;6.582;2023-03-16T01:36:02;13.52;;;2.90;;
73456;SDS011;61691;53.072;6.582;2023-03-16T01:38:35;13.27;;;3.58;;
73456;SDS011;61691;53.072;6.582;2023-03-16T01:41:02;14.65;;;3.20;;
73456;SDS011;61691;53.072;6.582;2023-03-16T01:43:29;15.02;;;3.75;;
73456;SDS011;61691;53.072;6.582;2023-03-16T01:48:41;16.90;;;3.67;;
73456;SDS011;61691;53.072;6.582;2023-03-16T01:51:20;15.63;;;3.97;;
73456;SDS011;61691;53.072;6.582;2023-03-16T01:53:49;16.02;;;3.22;;
73456;SDS011;61691;53.072;6.582;2023-03-16T01:56:23;17.33;;;4.93;;
73456;SDS011;61691;53.072;6.582;2023-03-16T01:58:55;15.68;;;4.03;;
73456;SDS011;61691;53.072;6.582;2023-03-16T02:01:27;16.33;;;4.28;;
73456;SDS011;61691;53.072;6.582;2023-03-16T02:03:56;16.55;;;4.45;;
73456;SDS011;61691;53.072;6.582;2023-03-16T02:06:29;17.15;;;3.75;;
73456;SDS011;61691;53.072;6.582;2023-03-16T02:08:57;16.58;;;3.90;;
73456;SDS011;61691;53.072;6.582;2023-03-16T02:11:24;18.15;;;3.92;;
73456;SDS011;61691;53.072;6.582;2023-03-16T02:13:52;18.15;;;4.25;;
73456;SDS011;61691;53.072;6.582;2023-03-16T02:16:23;17.30;;;4.18;;
73456;SDS011;61691;53.072;6.582;2023-03-16T02:18:50;16.55;;;4.05;;
73456;SDS011;61691;53.072;6.582;2023-03-16T02:23:55;15.73;;;3.70;;
73456;SDS011;61691;53.072;6.582;2023-03-16T02:26:31;17.10;;;4.10;;
73456;SDS011;61691;53.072;6.582;2023-03-16T02:29:16;17.25;;;4.32;;
73456;SDS011;61691;53.072;6.582;2023-03-16T02:31:45;17.25;;;4.25;;
73456;SDS011;61691;53.072;6.582;2023-03-16T02:34:12;16.98;;;3.90;;
73456;SDS011;61691;53.072;6.582;2023-03-16T02:36:41;15.13;;;4.03;;
73456;SDS011;61691;53.072;6.582;2023-03-16T02:39:10;16.10;;;3.70;;
73456;SDS011;61691;53.072;6.582;2023-03-16T02:41:37;14.10;;;3.47;;
73456;SDS011;61691;53.072;6.582;2023-03-16T02:44:11;13.63;;;3.53;;
73456;SDS011;61691;53.072;6.582;2023-03-16T02:46:42;17.10;;;4.10;;
73456;SDS011;61691;53.072;6.582;2023-03-16T02:51:51;14.98;;;4.20;;
73456;SDS011;61691;53.072;6.582;2023-03-16T02:54:17;16.17;;;4.03;;
73456;SDS011;61691;53.072;6.582;2023-03-16T02:56:44;17.70;;;3.80;;
73456;SDS011;61691;53.072;6.582;2023-03-16T02:59:11;15.30;;;3.80;;
73456;SDS011;61691;53.072;6.582;2023-03-16T03:01:38;15.75;;;4.20;;
73456;SDS011;61691;53.072;6.582;2023-03-16T03:04:04;16.25;;;4.30;;
73456;SDS011;61691;53.072;6.582;2023-03-16T03:06:32;16.48;;;4.13;;
73456;SDS011;61691;53.072;6.582;2023-03-16T03:08:59;13.82;;;3.58;;
73456;SDS011;61691;53.072;6.582;2023-03-16T03:11:27;17.20;;;3.90;;
73456;SDS011;61691;53.072;6.582;2023-03-16T03:13:55;14.77;;;3.55;;
73456;SDS011;61691;53.072;6.582;2023-03-16T03:16:22;14.68;;;3.78;;
73456;SDS011;61691;53.072;6.582;2023-03-16T03:18:49;16.77;;;3.30;;
73456;SDS011;61691;53.072;6.582;2023-03-16T03:21:18;13.80;;;3.67;;
73456;SDS011;61691;53.072;6.582;2023-03-16T03:23:44;16.95;;;3.53;;
73456;SDS011;61691;53.072;6.582;2023-03-16T03:26:12;14.98;;;3.60;;
73456;SDS011;61691;53.072;6.582;2023-03-16T03:28:42;15.40;;;4.18;;
73456;SDS011;61691;53.072;6.582;2023-03-16T03:31:13;17.08;;;3.58;;
73456;SDS011;61691;53.072;6.582;2023-03-16T03:33:43;16.10;;;3.58;;
73456;SDS011;61691;53.072;6.582;2023-03-16T03:36:10;17.40;;;3.90;;
73456;SDS011;61691;53.072;6.582;2023-03-16T03:38:37;14.73;;;3.47;;
73456;SDS011;61691;53.072;6.582;2023-03-16T03:41:04;14.00;;;3.42;;
73456;SDS011;61691;53.072;6.582;2023-03-16T03:43:34;16.75;;;3.58;;
73456;SDS011;61691;53.072;6.582;2023-03-16T03:46:01;16.45;;;3.72;;
73456;SDS011;61691;53.072;6.582;2023-03-16T03:48:29;14.35;;;3.55;;
73456;SDS011;61691;53.072;6.582;2023-03-16T03:50:56;14.90;;;3.67;;
73456;SDS011;61691;53.072;6.582;2023-03-16T03:53:23;16.88;;;4.00;;
73456;SDS011;61691;53.072;6.582;2023-03-16T03:55:50;14.23;;;3.53;;
73456;SDS011;61691;53.072;6.582;2023-03-16T03:58:16;15.48;;;3.75;;
73456;SDS011;61691;53.072;6.582;2023-03-16T04:00:43;17.85;;;4.03;;
73456;SDS011;61691;53.072;6.582;2023-03-16T04:03:10;15.02;;;3.58;;
73456;SDS011;61691;53.072;6.582;2023-03-16T04:05:36;14.30;;;3.30;;
73456;SDS011;61691;53.072;6.582;2023-03-16T04:08:03;15.35;;;3.40;;
73456;SDS011;61691;53.072;6.582;2023-03-16T04:10:30;17.48;;;3.65;;
73456;SDS011;61691;53.072;6.582;2023-03-16T04:12:57;17.52;;;4.28;;
73456;SDS011;61691;53.072;6.582;2023-03-16T04:15:24;18.35;;;3.58;;
73456;SDS011;61691;53.072;6.582;2023-03-16T04:17:51;16.58;;;3.95;;
73456;SDS011;61691;53.072;6.582;2023-03-16T04:20:18;14.70;;;3.80;;
73456;SDS011;61691;53.072;6.582;2023-03-16T04:22:46;16.60;;;3.65;;
73456;SDS011;61691;53.072;6.582;2023-03-16T04:25:15;13.57;;;3.53;;
73456;SDS011;61691;53.072;6.582;2023-03-16T04:27:43;13.90;;;3.45;;
73456;SDS011;61691;53.072;6.582;2023-03-16T04:30:11;16.77;;;4.05;;
73456;SDS011;61691;53.072;6.582;2023-03-16T04:32:39;13.95;;;3.58;;
73456;SDS011;61691;53.072;6.582;2023-03-16T04:35:07;14.57;;;3.80;;
73456;SDS011;61691;53.072;6.582;2023-03-16T04:37:34;17.50;;;3.85;;
73456;SDS011;61691;53.072;6.582;2023-03-16T04:40:00;16.17;;;4.03;;
73456;SDS011;61691;53.072;6.582;2023-03-16T04:42:36;17.95;;;4.28;;
73456;SDS011;61691;53.072;6.582;2023-03-16T04:45:03;14.32;;;3.60;;
73456;SDS011;61691;53.072;6.582;2023-03-16T04:47:30;15.32;;;3.97;;
73456;SDS011;61691;53.072;6.582;2023-03-16T04:49:59;15.00;;;3.53;;
73456;SDS011;61691;53.072;6.582;2023-03-16T04:52:27;15.02;;;3.85;;
73456;SDS011;61691;53.072;6.582;2023-03-16T04:54:54;15.63;;;4.13;;
73456;SDS011;61691;53.072;6.582;2023-03-16T04:57:21;15.75;;;3.92;;
73456;SDS011;61691;53.072;6.582;2023-03-16T04:59:48;16.15;;;4.60;;
73456;SDS011;61691;53.072;6.582;2023-03-16T05:02:15;15.82;;;3.72;;
73456;SDS011;61691;53.072;6.582;2023-03-16T05:04:42;15.80;;;3.63;;
73456;SDS011;61691;53.072;6.582;2023-03-16T05:07:09;14.98;;;3.80;;
73456;SDS011;61691;53.072;6.582;2023-03-16T05:09:36;14.38;;;3.70;;
73456;SDS011;61691;53.072;6.582;2023-03-16T05:12:03;16.33;;;4.32;;
73456;SDS011;61691;53.072;6.582;2023-03-16T05:14:30;14.07;;;3.33;;
73456;SDS011;61691;53.072;6.582;2023-03-16T05:16:56;15.75;;;3.65;;
73456;SDS011;61691;53.072;6.582;2023-03-16T05:19:23;13.73;;;3.80;;
73456;SDS011;61691;53.072;6.582;2023-03-16T05:21:50;15.75;;;3.92;;
73456;SDS011;61691;53.072;6.582;2023-03-16T05:24:16;16.85;;;4.00;;
73456;SDS011;61691;53.072;6.582;2023-03-16T05:26:43;15.68;;;3.97;;
73456;SDS011;61691;53.072;6.582;2023-03-16T05:29:10;16.75;;;3.88;;
73456;SDS011;61691;53.072;6.582;2023-03-16T05:31:36;16.13;;;3.85;;
73456;SDS011;61691;53.072;6.582;2023-03-16T05:34:03;17.48;;;3.95;;
73456;SDS011;61691;53.072;6.582;2023-03-16T05:36:30;15.73;;;4.10;;
73456;SDS011;61691;53.072;6.582;2023-03-16T05:38:57;14.77;;;4.05;;
73456;SDS011;61691;53.072;6.582;2023-03-16T05:41:24;15.80;;;4.10;;
73456;SDS011;61691;53.072;6.582;2023-03-16T05:43:51;14.45;;;4.10;;
73456;SDS011;61691;53.072;6.582;2023-03-16T05:46:18;16.38;;;4.43;;
73456;SDS011;61691;53.072;6.582;2023-03-16T05:48:46;16.50;;;4.30;;
73456;SDS011;61691;53.072;6.582;2023-03-16T05:51:12;15.35;;;4.00;;
73456;SDS011;61691;53.072;6.582;2023-03-16T05:53:40;16.45;;;3.88;;
73456;SDS011;61691;53.072;6.582;2023-03-16T05:56:07;15.27;;;4.00;;
73456;SDS011;61691;53.072;6.582;2023-03-16T05:58:33;14.93;;;4.28;;
73456;SDS011;61691;53.072;6.582;2023-03-16T06:01:00;16.30;;;3.90;;
73456;SDS011;61691;53.072;6.582;2023-03-16T06:03:27;16.25;;;4.07;;
73456;SDS011;61691;53.072;6.582;2023-03-16T06:05:53;16.98;;;4.30;;
73456;SDS011;61691;53.072;6.582;2023-03-16T06:08:20;17.60;;;4.43;;
73456;SDS011;61691;53.072;6.582;2023-03-16T06:10:47;17.27;;;3.80;;
73456;SDS011;61691;53.072;6.582;2023-03-16T06:13:14;18.50;;;4.43;;
73456;SDS011;61691;53.072;6.582;2023-03-16T06:15:41;15.50;;;4.30;;
73456;SDS011;61691;53.072;6.582;2023-03-16T06:18:09;15.73;;;3.95;;
73456;SDS011;61691;53.072;6.582;2023-03-16T06:20:36;16.05;;;4.50;;
73456;SDS011;61691;53.072;6.582;2023-03-16T06:23:02;15.30;;;4.10;;
73456;SDS011;61691;53.072;6.582;2023-03-16T06:25:29;15.93;;;4.13;;
73456;SDS011;61691;53.072;6.582;2023-03-16T06:27:56;15.85;;;3.97;;
73456;SDS011;61691;53.072;6.582;2023-03-16T06:30:23;14.93;;;4.00;;
73456;SDS011;61691;53.072;6.582;2023-03-16T06:32:50;14.65;;;3.97;;
73456;SDS011;61691;53.072;6.582;2023-03-16T06:35:17;17.90;;;4.25;;
73456;SDS011;61691;53.072;6.582;2023-03-16T06:37:44;16.58;;;4.35;;
73456;SDS011;61691;53.072;6.582;2023-03-16T06:40:11;17.15;;;4.13;;
73456;SDS011;61691;53.072;6.582;2023-03-16T06:42:38;14.77;;;4.10;;
73456;SDS011;61691;53.072;6.582;2023-03-16T06:45:05;15.98;;;4.60;;
73456;SDS011;61691;53.072;6.582;2023-03-16T06:47:32;16.17;;;4.53;;
73456;SDS011;61691;53.072;6.582;2023-03-16T06:49:59;14.50;;;3.90;;
73456;SDS011;61691;53.072;6.582;2023-03-16T06:52:26;16.50;;;4.38;;
73456;SDS011;61691;53.072;6.582;2023-03-16T06:54:53;16.50;;;4.22;;
73456;SDS011;61691;53.072;6.582;2023-03-16T06:57:20;14.98;;;3.85;;
73456;SDS011;61691;53.072;6.582;2023-03-16T06:59:46;15.18;;;3.90;;
73456;SDS011;61691;53.072;6.582;2023-03-16T07:02:13;16.33;;;4.13;;
73456;SDS011;61691;53.072;6.582;2023-03-16T07:04:40;15.95;;;4.15;;
73456;SDS011;61691;53.072;6.582;2023-03-16T07:07:07;16.60;;;4.05;;
73456;SDS011;61691;53.072;6.582;2023-03-16T07:09:35;15.75;;;4.70;;
73456;SDS011;61691;53.072;6.582;2023-03-16T07:12:06;14.93;;;4.18;;
73456;SDS011;61691;53.072;6.582;2023-03-16T07:14:33;14.52;;;3.63;;
73456;SDS011;61691;53.072;6.582;2023-03-16T07:16:59;14.15;;;3.60;;
73456;SDS011;61691;53.072;6.582;2023-03-16T07:19:27;14.00;;;3.63;;
73456;SDS011;61691;53.072;6.582;2023-03-16T07:21:54;15.30;;;4.32;;
73456;SDS011;61691;53.072;6.582;2023-03-16T07:24:20;13.27;;;3.90;;
73456;SDS011;61691;53.072;6.582;2023-03-16T07:26:47;15.18;;;4.00;;
73456;SDS011;61691;53.072;6.582;2023-03-16T07:29:14;14.07;;;3.85;;
73456;SDS011;61691;53.072;6.582;2023-03-16T07:31:42;14.45;;;3.50;;
73456;SDS011;61691;53.072;6.582;2023-03-16T07:34:09;15.50;;;4.07;;
73456;SDS011;61691;53.072;6.582;2023-03-16T07:36:36;17.55;;;4.03;;
73456;SDS011;61691;53.072;6.582;2023-03-16T07:39:03;13.65;;;3.63;;
73456;SDS011;61691;53.072;6.582;2023-03-16T07:41:31;16.73;;;4.13;;
73456;SDS011;61691;53.072;6.582;2023-03-16T07:43:58;15.45;;;3.92;;
73456;SDS011;61691;53.072;6.582;2023-03-16T07:46:24;16.38;;;3.75;;
73456;SDS011;61691;53.072;6.582;2023-03-16T07:48:51;13.70;;;4.00;;
73456;SDS011;61691;53.072;6.582;2023-03-16T07:51:18;16.05;;;3.90;;
73456;SDS011;61691;53.072;6.582;2023-03-16T07:53:45;16.30;;;3.70;;
73456;SDS011;61691;53.072;6.582;2023-03-16T07:56:12;13.88;;;3.55;;
73456;SDS011;61691;53.072;6.582;2023-03-16T07:58:38;17.20;;;3.90;;
73456;SDS011;61691;53.072;6.582;2023-03-16T08:01:05;14.32;;;3.72;;
73456;SDS011;61691;53.072;6.582;2023-03-16T08:03:32;15.10;;;4.00;;
73456;SDS011;61691;53.072;6.582;2023-03-16T08:05:58;14.68;;;3.70;;
73456;SDS011;61691;53.072;6.582;2023-03-16T08:08:25;15.95;;;4.05;;
73456;SDS011;61691;53.072;6.582;2023-03-16T08:10:52;13.80;;;3.83;;
73456;SDS011;61691;53.072;6.582;2023-03-16T08:13:22;14.55;;;4.15;;
73456;SDS011;61691;53.072;6.582;2023-03-16T08:15:49;15.23;;;4.00;;
73456;SDS011;61691;53.072;6.582;2023-03-16T08:18:28;13.85;;;3.80;;
73456;SDS011;61691;53.072;6.582;2023-03-16T08:20:55;15.80;;;3.95;;
73456;SDS011;61691;53.072;6.582;2023-03-16T08:23:23;15.43;;;4.35;;
73456;SDS011;61691;53.072;6.582;2023-03-16T08:25:55;17.52;;;3.90;;
73456;SDS011;61691;53.072;6.582;2023-03-16T08:28:23;14.38;;;3.80;;
73456;SDS011;61691;53.072;6.582;2023-03-16T08:30:52;15.07;;;3.80;;
73456;SDS011;61691;53.072;6.582;2023-03-16T08:33:19;15.55;;;3.70;;
73456;SDS011;61691;53.072;6.582;2023-03-16T08:35:48;15.13;;;3.90;;
73456;SDS011;61691;53.072;6.582;2023-03-16T08:38:16;16.48;;;4.05;;
73456;SDS011;61691;53.072;6.582;2023-03-16T08:40:44;16.42;;;4.53;;
73456;SDS011;61691;53.072;6.582;2023-03-16T08:43:14;16.25;;;4.13;;
73456;SDS011;61691;53.072;6.582;2023-03-16T08:45:45;15.82;;;3.92;;
73456;SDS011;61691;53.072;6.582;2023-03-16T08:48:12;16.52;;;4.05;;
73456;SDS011;61691;53.072;6.582;2023-03-16T08:50:40;15.50;;;4.07;;
73456;SDS011;61691;53.072;6.582;2023-03-16T08:53:09;16.55;;;4.32;;
73456;SDS011;61691;53.072;6.582;2023-03-16T08:55:37;15.38;;;4.18;;
73456;SDS011;61691;53.072;6.582;2023-03-16T08:58:07;14.85;;;3.85;;
73456;SDS011;61691;53.072;6.582;2023-03-16T09:00:34;17.42;;;4.32;;
73456;SDS011;61691;53.072;6.582;2023-03-16T09:03:01;14.50;;;4.10;;
73456;SDS011;61691;53.072;6.582;2023-03-16T09:05:29;15.43;;;4.13;;
73456;SDS011;61691;53.072;6.582;2023-03-16T09:07:57;16.02;;;4.30;;
73456;SDS011;61691;53.072;6.582;2023-03-16T09:10:24;17.23;;;4.32;;
73456;SDS011;61691;53.072;6.582;2023-03-16T09:12:53;14.55;;;4.30;;
73456;SDS011;61691;53.072;6.582;2023-03-16T09:15:20;17.02;;;4.65;;
73456;SDS011;61691;53.072;6.582;2023-03-16T09:17:47;15.60;;;4.50;;
73456;SDS011;61691;53.072;6.582;2023-03-16T09:20:14;16.02;;;4.40;;
73456;SDS011;61691;53.072;6.582;2023-03-16T09:22:53;16.08;;;4.18;;
73456;SDS011;61691;53.072;6.582;2023-03-16T09:25:20;16.80;;;4.70;;
73456;SDS011;61691;53.072;6.582;2023-03-16T09:27:47;16.00;;;4.30;;
73456;SDS011;61691;53.072;6.582;2023-03-16T09:30:14;15.55;;;4.13;;
73456;SDS011;61691;53.072;6.582;2023-03-16T09:32:42;15.55;;;4.22;;
73456;SDS011;61691;53.072;6.582;2023-03-16T09:35:10;15.65;;;4.50;;
73456;SDS011;61691;53.072;6.582;2023-03-16T09:37:37;15.73;;;4.93;;
73456;SDS011;61691;53.072;6.582;2023-03-16T09:40:18;15.10;;;4.38;;
73456;SDS011;61691;53.072;6.582;2023-03-16T09:43:00;16.23;;;4.50;;
73456;SDS011;61691;53.072;6.582;2023-03-16T09:48:43;14.57;;;4.47;;
73456;SDS011;61691;53.072;6.582;2023-03-16T09:51:14;18.52;;;4.82;;
73456;SDS011;61691;53.072;6.582;2023-03-16T09:53:48;16.08;;;5.32;;
73456;SDS011;61691;53.072;6.582;2023-03-16T09:56:28;16.20;;;4.78;;
73456;SDS011;61691;53.072;6.582;2023-03-16T09:58:58;18.17;;;4.53;;
73456;SDS011;61691;53.072;6.582;2023-03-16T10:04:32;18.40;;;4.55;;
73456;SDS011;61691;53.072;6.582;2023-03-16T10:10:25;17.95;;;4.47;;
73456;SDS011;61691;53.072;6.582;2023-03-16T10:13:16;17.13;;;4.47;;
73456;SDS011;61691;53.072;6.582;2023-03-16T10:19:10;16.52;;;4.78;;
73456;SDS011;61691;53.072;6.582;2023-03-16T10:21:42;17.38;;;5.55;;
73456;SDS011;61691;53.072;6.582;2023-03-16T10:24:16;15.82;;;4.28;;
73456;SDS011;61691;53.072;6.582;2023-03-16T10:26:56;16.08;;;4.70;;
73456;SDS011;61691;53.072;6.582;2023-03-16T10:29:27;16.38;;;4.72;;
73456;SDS011;61691;53.072;6.582;2023-03-16T10:34:27;17.88;;;4.75;;
73456;SDS011;61691;53.072;6.582;2023-03-16T10:36:54;17.50;;;4.80;;
73456;SDS011;61691;53.072;6.582;2023-03-16T10:39:21;16.95;;;5.10;;
73456;SDS011;61691;53.072;6.582;2023-03-16T10:41:55;16.35;;;4.55;;
73456;SDS011;61691;53.072;6.582;2023-03-16T10:44:25;16.90;;;4.53;;
73456;SDS011;61691;53.072;6.582;2023-03-16T10:46:59;14.95;;;4.18;;
73456;SDS011;61691;53.072;6.582;2023-03-16T10:52:26;17.65;;;4.80;;
73456;SDS011;61691;53.072;6.582;2023-03-16T10:54:56;18.08;;;4.45;;
73456;SDS011;61691;53.072;6.582;2023-03-16T11:00:05;17.73;;;4.45;;
73456;SDS011;61691;53.072;6.582;2023-03-16T11:02:46;14.70;;;4.00;;
73456;SDS011;61691;53.072;6.582;2023-03-16T11:07:48;16.67;;;4.18;;
73456;SDS011;61691;53.072;6.582;2023-03-16T11:13:33;16.25;;;3.97;;
73456;SDS011;61691;53.072;6.582;2023-03-16T11:16:13;15.23;;;4.60;;
73456;SDS011;61691;53.072;6.582;2023-03-16T11:18:50;18.45;;;4.35;;
73456;SDS011;61691;53.072;6.582;2023-03-16T11:21:41;16.25;;;4.32;;
73456;SDS011;61691;53.072;6.582;2023-03-16T11:24:18;14.57;;;4.18;;
73456;SDS011;61691;53.072;6.582;2023-03-16T11:26:55;15.40;;;4.53;;
73456;SDS011;61691;53.072;6.582;2023-03-16T11:32:35;14.07;;;3.67;;
73456;SDS011;61691;53.072;6.582;2023-03-16T11:35:16;17.55;;;4.10;;
73456;SDS011;61691;53.072;6.582;2023-03-16T11:40:57;19.17;;;4.30;;
73456;SDS011;61691;53.072;6.582;2023-03-16T11:46:22;16.35;;;4.18;;
73456;SDS011;61691;53.072;6.582;2023-03-16T11:51:54;17.35;;;4.82;;
73456;SDS011;61691;53.072;6.582;2023-03-16T11:54:39;16.50;;;4.03;;
73456;SDS011;61691;53.072;6.582;2023-03-16T12:03:46;15.23;;;3.60;;
73456;SDS011;61691;53.072;6.582;2023-03-16T12:06:49;14.27;;;4.07;;
73456;SDS011;61691;53.072;6.582;2023-03-16T12:18:14;15.02;;;3.50;;
73456;SDS011;61691;53.072;6.582;2023-03-16T12:21:14;14.10;;;4.05;;
73456;SDS011;61691;53.072;6.582;2023-03-16T12:26:44;18.15;;;5.50;;
73456;SDS011;61691;53.072;6.582;2023-03-16T12:29:32;15.73;;;4.53;;
73456;SDS011;61691;53.072;6.582;2023-03-16T12:35:02;16.52;;;4.03;;
73456;SDS011;61691;53.072;6.582;2023-03-16T12:37:44;15.05;;;3.90;;
73456;SDS011;61691;53.072;6.582;2023-03-16T12:40:30;15.25;;;3.92;;
73456;SDS011;61691;53.072;6.582;2023-03-16T12:50:58;14.45;;;3.88;;
73456;SDS011;61691;53.072;6.582;2023-03-16T12:56:10;14.77;;;3.90;;
73456;SDS011;61691;53.072;6.582;2023-03-16T12:58:46;13.93;;;3.70;;
73456;SDS011;61691;53.072;6.582;2023-03-16T13:01:16;14.15;;;3.30;;
73456;SDS011;61691;53.072;6.582;2023-03-16T13:03:47;13.55;;;3.63;;
73456;SDS011;61691;53.072;6.582;2023-03-16T13:06:16;13.85;;;3.40;;
73456;SDS011;61691;53.072;6.582;2023-03-16T13:08:47;13.32;;;3.65;;
73456;SDS011;61691;53.072;6.582;2023-03-16T13:11:19;14.38;;;3.30;;
73456;SDS011;61691;53.072;6.582;2023-03-16T13:16:26;14.48;;;3.67;;
73456;SDS011;61691;53.072;6.582;2023-03-16T13:18:56;13.27;;;3.53;;
73456;SDS011;61691;53.072;6.582;2023-03-16T13:21:41;14.63;;;4.18;;
73456;SDS011;61691;53.072;6.582;2023-03-16T13:26:47;15.35;;;3.97;;
73456;SDS011;61691;53.072;6.582;2023-03-16T13:29:19;13.13;;;3.20;;
73456;SDS011;61691;53.072;6.582;2023-03-16T13:31:49;13.23;;;3.28;;
73456;SDS011;61691;53.072;6.582;2023-03-16T13:34:22;14.77;;;3.63;;
73456;SDS011;61691;53.072;6.582;2023-03-16T13:36:53;15.07;;;3.55;;
73456;SDS011;61691;53.072;6.582;2023-03-16T13:39:26;13.17;;;3.20;;
73456;SDS011;61691;53.072;6.582;2023-03-16T13:41:57;13.85;;;3.50;;
73456;SDS011;61691;53.072;6.582;2023-03-16T13:44:25;13.60;;;3.80;;
73456;SDS011;61691;53.072;6.582;2023-03-16T13:46:53;12.10;;;3.25;;
73456;SDS011;61691;53.072;6.582;2023-03-16T13:49:19;14.75;;;4.13;;
73456;SDS011;61691;53.072;6.582;2023-03-16T13:51:47;13.27;;;3.17;;
73456;SDS011;61691;53.072;6.582;2023-03-16T13:54:19;15.80;;;3.28;;
73456;SDS011;61691;53.072;6.582;2023-03-16T13:56:47;13.05;;;3.13;;
73456;SDS011;61691;53.072;6.582;2023-03-16T13:59:14;13.27;;;3.50;;
73456;SDS011;61691;53.072;6.582;2023-03-16T14:01:43;13.27;;;3.25;;
73456;SDS011;61691;53.072;6.582;2023-03-16T14:04:11;12.73;;;3.15;;
73456;SDS011;61691;53.072;6.582;2023-03-16T14:06:59;12.93;;;3.50;;
73456;SDS011;61691;53.072;6.582;2023-03-16T14:09:28;17.05;;;3.67;;
73456;SDS011;61691;53.072;6.582;2023-03-16T14:11:58;12.95;;;3.35;;
73456;SDS011;61691;53.072;6.582;2023-03-16T14:14:29;14.05;;;3.38;;
73456;SDS011;61691;53.072;6.582;2023-03-16T14:17:07;13.75;;;3.38;;
73456;SDS011;61691;53.072;6.582;2023-03-16T14:19:40;12.18;;;3.35;;
73456;SDS011;61691;53.072;6.582;2023-03-16T14:22:15;15.25;;;3.92;;
73456;SDS011;61691;53.072;6.582;2023-03-16T14:24:52;15.23;;;3.75;;
73456;SDS011;61691;53.072;6.582;2023-03-16T14:27:28;14.18;;;3.80;;
73456;SDS011;61691;53.072;6.582;2023-03-16T14:30:12;15.32;;;3.70;;
73456;SDS011;61691;53.072;6.582;2023-03-16T14:32:57;12.80;;;3.47;;
73456;SDS011;61691;53.072;6.582;2023-03-16T14:35:31;16.35;;;3.78;;
73456;SDS011;61691;53.072;6.582;2023-03-16T14:38:29;15.73;;;3.47;;
73456;SDS011;61691;53.072;6.582;2023-03-16T14:43:34;14.90;;;3.33;;
73456;SDS011;61691;53.072;6.582;2023-03-16T14:46:04;13.60;;;3.17;;
73456;SDS011;61691;53.072;6.582;2023-03-16T14:48:33;14.88;;;3.30;;
73456;SDS011;61691;53.072;6.582;2023-03-16T14:51:01;14.30;;;3.40;;
73456;SDS011;61691;53.072;6.582;2023-03-16T14:53:29;14.65;;;3.15;;
73456;SDS011;61691;53.072;6.582;2023-03-16T14:55:57;14.13;;;3.08;;
73456;SDS011;61691;53.072;6.582;2023-03-16T14:58:24;12.75;;;3.35;;
73456;SDS011;61691;53.072;6.582;2023-03-16T15:00:52;13.63;;;3.40;;
73456;SDS011;61691;53.072;6.582;2023-03-16T15:03:21;14.35;;;3.65;;
73456;SDS011;61691;53.072;6.582;2023-03-16T15:05:55;13.48;;;3.50;;
73456;SDS011;61691;53.072;6.582;2023-03-16T15:08:22;12.52;;;3.22;;
73456;SDS011;61691;53.072;6.582;2023-03-16T15:10:56;11.80;;;3.05;;
73456;SDS011;61691;53.072;6.582;2023-03-16T15:13:26;16.70;;;3.83;;
73456;SDS011;61691;53.072;6.582;2023-03-16T15:16:05;13.75;;;3.30;;
73456;SDS011;61691;53.072;6.582;2023-03-16T15:18:34;13.45;;;3.30;;
73456;SDS011;61691;53.072;6.582;2023-03-16T15:21:00;14.02;;;3.60;;
73456;SDS011;61691;53.072;6.582;2023-03-16T15:23:28;12.98;;;3.10;;
73456;SDS011;61691;53.072;6.582;2023-03-16T15:25:56;12.20;;;2.90;;
73456;SDS011;61691;53.072;6.582;2023-03-16T15:28:28;14.88;;;3.55;;
73456;SDS011;61691;53.072;6.582;2023-03-16T15:30:55;15.52;;;3.75;;
73456;SDS011;61691;53.072;6.582;2023-03-16T15:33:24;14.30;;;3.00;;
73456;SDS011;61691;53.072;6.582;2023-03-16T15:35:52;15.15;;;3.47;;
73456;SDS011;61691;53.072;6.582;2023-03-16T15:38:22;13.20;;;3.38;;
73456;SDS011;61691;53.072;6.582;2023-03-16T15:40:51;14.32;;;4.15;;
73456;SDS011;61691;53.072;6.582;2023-03-16T15:43:19;15.50;;;3.83;;
73456;SDS011;61691;53.072;6.582;2023-03-16T15:45:48;15.82;;;4.00;;
73456;SDS011;61691;53.072;6.582;2023-03-16T15:48:17;12.45;;;3.10;;
73456;SDS011;61691;53.072;6.582;2023-03-16T15:53:26;12.77;;;3.15;;
73456;SDS011;61691;53.072;6.582;2023-03-16T15:56:01;14.80;;;3.75;;
73456;SDS011;61691;53.072;6.582;2023-03-16T15:58:34;13.88;;;3.28;;
73456;SDS011;61691;53.072;6.582;2023-03-16T16:01:03;11.55;;;2.90;;
73456;SDS011;61691;53.072;6.582;2023-03-16T16:03:30;13.18;;;3.30;;
73456;SDS011;61691;53.072;6.582;2023-03-16T16:05:59;12.40;;;3.10;;
73456;SDS011;61691;53.072;6.582;2023-03-16T16:08:27;14.63;;;3.47;;
73456;SDS011;61691;53.072;6.582;2023-03-16T16:10:53;12.85;;;2.90;;
73456;SDS011;61691;53.072;6.582;2023-03-16T16:16:08;15.57;;;3.28;;
73456;SDS011;61691;53.072;6.582;2023-03-16T16:18:37;11.68;;;2.80;;
73456;SDS011;61691;53.072;6.582;2023-03-16T16:21:05;12.43;;;3.33;;